createdAt,value
2019-05-29T00:01:54.276Z,6.03
2019-05-29T00:04:23.515Z,5.47
2019-05-29T00:06:52.697Z,5.30
2019-05-29T00:09:22.292Z,4.43
2019-05-29T00:11:51.622Z,4.87
2019-05-29T00:14:27.173Z,5.53
2019-05-29T00:16:52.847Z,7.33
2019-05-29T00:19:22.089Z,4.70
2019-05-29T00:21:51.654Z,5.93
2019-05-29T00:24:21.149Z,5.63
2019-05-29T00:26:52.214Z,5.03
2019-05-29T00:29:21.809Z,4.97
2019-05-29T00:32:11.909Z,5.67
2019-05-29T00:34:41.210Z,5.13
2019-05-29T00:37:10.525Z,4.90
2019-05-29T00:39:39.976Z,6.23
2019-05-29T00:42:09.202Z,5.37
2019-05-29T00:44:38.387Z,5.03
2019-05-29T00:47:07.619Z,6.40
2019-05-29T00:49:36.804Z,5.70
2019-05-29T00:52:06.052Z,6.07
2019-05-29T00:54:35.241Z,4.70
2019-05-29T00:57:05.512Z,5.73
2019-05-29T00:59:34.696Z,4.57
2019-05-29T01:02:04.347Z,4.20
2019-05-29T01:04:33.502Z,6.23
2019-05-29T01:07:02.780Z,4.60
2019-05-29T01:09:32.260Z,4.67
2019-05-29T01:12:01.499Z,4.23
2019-05-29T01:14:30.683Z,4.70
2019-05-29T01:16:59.990Z,4.50
2019-05-29T01:19:29.187Z,4.80
2019-05-29T01:21:58.389Z,4.50
2019-05-29T01:24:28.015Z,5.17
2019-05-29T01:26:57.610Z,5.97
2019-05-29T01:29:27.263Z,5.43
2019-05-29T01:34:46.326Z,4.07
2019-05-29T01:37:16.119Z,5.07
2019-05-29T01:39:46.484Z,4.27
2019-05-29T01:42:15.668Z,4.43
2019-05-29T01:44:44.924Z,4.47
2019-05-29T01:47:15.342Z,4.80
2019-05-29T01:49:45.393Z,4.60
2019-05-29T01:52:15.519Z,4.47
2019-05-29T01:54:45.928Z,4.63
2019-05-29T01:57:15.759Z,4.90
2019-05-29T01:59:46.146Z,5.63
2019-05-29T02:02:15.757Z,4.30
2019-05-29T02:04:46.752Z,4.80
2019-05-29T02:07:15.941Z,4.30
2019-05-29T02:09:45.128Z,4.90
2019-05-29T02:12:14.383Z,5.40
2019-05-29T02:14:43.583Z,5.17
2019-05-29T02:17:12.896Z,5.03
2019-05-29T02:19:42.099Z,5.00
2019-05-29T02:22:11.613Z,5.17
2019-05-29T02:24:40.808Z,5.23
2019-05-29T02:27:10.057Z,7.33
2019-05-29T02:29:39.623Z,5.67
2019-05-29T02:32:08.869Z,5.53
2019-05-29T02:34:38.062Z,6.07
2019-05-29T02:37:07.306Z,5.90
2019-05-29T02:39:36.627Z,5.90
2019-05-29T02:42:06.219Z,5.90
2019-05-29T02:44:35.407Z,5.80
2019-05-29T02:47:04.647Z,5.43
2019-05-29T02:49:34.284Z,5.53
2019-05-29T02:52:03.519Z,7.40
2019-05-29T02:54:33.023Z,6.23
2019-05-29T02:57:02.641Z,5.87
2019-05-29T02:59:32.232Z,7.23
2019-05-29T03:02:02.826Z,6.87
2019-05-29T03:04:33.053Z,6.07
2019-05-29T03:07:42.992Z,6.20
2019-05-29T03:13:20.878Z,6.83
2019-05-29T03:16:08.771Z,6.43
2019-05-29T03:18:21.392Z,8.00
2019-05-29T03:20:50.921Z,9.33
2019-05-29T03:23:20.229Z,8.87
2019-05-29T03:25:49.752Z,6.93
2019-05-29T03:28:18.993Z,7.60
2019-05-29T03:30:48.189Z,12.80
2019-05-29T03:33:17.444Z,6.97
2019-05-29T03:35:48.487Z,8.13
2019-05-29T03:38:17.555Z,7.23
2019-05-29T03:40:47.172Z,6.63
2019-05-29T03:43:16.353Z,8.10
2019-05-29T03:45:45.600Z,7.17
2019-05-29T03:48:14.792Z,6.90
2019-05-29T03:50:44.039Z,7.10
2019-05-29T03:53:13.227Z,7.87
2019-05-29T03:55:42.476Z,7.47
2019-05-29T03:58:11.667Z,7.00
2019-05-29T04:00:46.038Z,7.90
2019-05-29T04:03:12.199Z,7.77
2019-05-29T04:05:41.449Z,7.03
2019-05-29T04:08:10.647Z,7.43
2019-05-29T04:11:19.258Z,8.10
2019-05-29T04:13:48.844Z,7.63
2019-05-29T04:22:32.870Z,7.13
2019-05-29T04:25:43.063Z,7.40
2019-05-29T04:28:12.665Z,7.30
2019-05-29T04:30:41.907Z,6.90
2019-05-29T04:33:11.107Z,7.03
2019-05-29T04:35:40.362Z,7.67
2019-05-29T04:38:09.544Z,7.53
2019-05-29T04:40:39.579Z,6.70
2019-05-29T04:43:09.705Z,6.30
2019-05-29T04:45:40.147Z,6.87
2019-05-29T04:48:10.549Z,6.03
2019-05-29T04:50:40.608Z,7.23
2019-05-29T04:53:10.709Z,7.13
2019-05-29T04:55:40.031Z,7.10
2019-05-29T04:58:09.271Z,7.30
2019-05-29T05:00:39.363Z,7.60
2019-05-29T05:03:09.422Z,8.07
2019-05-29T05:05:39.576Z,8.73
2019-05-29T05:08:09.623Z,8.03
2019-05-29T05:10:41.128Z,9.23
2019-05-29T05:13:10.486Z,8.53
2019-05-29T05:15:40.248Z,8.27
2019-05-29T05:18:50.171Z,7.40
2019-05-29T05:21:19.359Z,8.00
2019-05-29T05:23:48.604Z,7.70
2019-05-29T05:26:17.909Z,7.63
2019-05-29T05:28:47.458Z,9.17
2019-05-29T05:31:18.241Z,7.13
2019-05-29T05:33:47.481Z,8.30
2019-05-29T05:36:17.045Z,7.40
2019-05-29T05:38:46.294Z,7.70
2019-05-29T05:41:15.486Z,7.23
2019-05-29T05:43:44.678Z,6.93
2019-05-29T05:46:13.918Z,6.87
2019-05-29T05:48:43.113Z,7.00
2019-05-29T05:51:12.360Z,7.07
2019-05-29T05:53:41.962Z,7.10
2019-05-29T05:56:11.237Z,7.20
2019-05-29T05:58:40.416Z,6.90
2019-05-29T06:01:09.654Z,8.33
2019-05-29T06:06:48.169Z,7.30
2019-05-29T06:09:17.355Z,7.83
2019-05-29T06:11:46.597Z,7.17
2019-05-29T06:14:16.111Z,7.97
2019-05-29T06:16:45.346Z,7.33
2019-05-29T06:19:14.593Z,8.30
2019-05-29T06:21:44.390Z,6.90
2019-05-29T06:24:13.697Z,7.87
2019-05-29T06:26:43.099Z,7.17
2019-05-29T06:29:12.626Z,7.23
2019-05-29T06:32:00.883Z,7.20
2019-05-29T06:34:30.528Z,6.90
2019-05-29T06:37:00.425Z,9.77
2019-05-29T06:39:30.029Z,7.07
2019-05-29T06:41:59.373Z,9.17
2019-05-29T06:44:28.570Z,6.67
2019-05-29T06:46:58.169Z,5.90
2019-05-29T06:49:27.800Z,7.57
2019-05-29T06:51:57.797Z,7.03
2019-05-29T06:54:27.595Z,7.03
2019-05-29T06:56:57.205Z,8.83
2019-05-29T06:59:26.690Z,6.80
2019-05-29T07:01:56.731Z,7.63
2019-05-29T07:04:25.913Z,6.83
2019-05-29T07:06:55.510Z,6.13
2019-05-29T07:09:25.019Z,6.07
2019-05-29T07:11:54.256Z,6.10
2019-05-29T07:14:23.459Z,7.37
2019-05-29T07:16:56.186Z,5.63
2019-05-29T07:19:26.809Z,5.20
2019-05-29T07:21:55.100Z,6.20
2019-05-29T07:24:24.300Z,7.77
2019-05-29T07:26:53.549Z,6.07
2019-05-29T07:29:23.537Z,5.60
2019-05-29T07:31:52.791Z,6.33
2019-05-29T07:34:22.623Z,5.77
2019-05-29T07:36:52.263Z,6.50
2019-05-29T07:39:21.798Z,6.27
2019-05-29T07:41:51.163Z,5.13
2019-05-29T07:44:20.498Z,4.90
2019-05-29T07:46:49.801Z,4.80
2019-05-29T07:49:19.016Z,5.47
2019-05-29T07:51:48.824Z,6.13
2019-05-29T07:54:19.208Z,5.20
2019-05-29T07:56:48.705Z,5.07
2019-05-29T07:59:19.480Z,4.63
2019-05-29T08:01:49.311Z,5.30
2019-05-29T08:04:20.063Z,7.23
2019-05-29T08:06:54.231Z,6.80
2019-05-29T08:09:20.366Z,4.87
2019-05-29T08:11:50.126Z,4.70
2019-05-29T08:14:20.532Z,6.70
2019-05-29T08:16:50.166Z,5.20
2019-05-29T08:19:20.755Z,5.93
2019-05-29T08:21:50.606Z,5.60
2019-05-29T08:24:24.718Z,5.50
2019-05-29T08:26:52.323Z,5.40
2019-05-29T08:29:21.573Z,6.23
2019-05-29T08:31:51.030Z,6.43
2019-05-29T08:34:21.689Z,5.20
2019-05-29T08:37:10.011Z,4.47
2019-05-29T08:39:39.247Z,4.10
2019-05-29T08:42:22.500Z,5.43
2019-05-29T08:44:39.404Z,4.43
2019-05-29T08:47:10.857Z,6.40
2019-05-29T08:49:39.579Z,12.27
2019-05-29T08:55:02.662Z,5.60
2019-05-29T08:57:32.209Z,5.17
2019-05-29T09:00:01.725Z,4.23
2019-05-29T09:02:30.991Z,5.80
2019-05-29T09:05:00.252Z,7.33
2019-05-29T09:07:50.051Z,4.40
2019-05-29T09:10:19.776Z,4.37
2019-05-29T09:12:56.759Z,4.17
2019-05-29T09:15:59.365Z,3.97
2019-05-29T09:18:28.634Z,3.47
2019-05-29T09:21:03.333Z,3.60
2019-05-29T09:23:28.874Z,3.53
2019-05-29T09:26:13.634Z,4.37
2019-05-29T09:28:27.997Z,3.93
2019-05-29T09:30:57.192Z,4.40
2019-05-29T09:33:33.248Z,4.93
2019-05-29T09:36:02.856Z,4.10
2019-05-29T09:38:32.148Z,5.03
2019-05-29T09:41:01.423Z,5.70
2019-05-29T09:43:31.026Z,4.43
2019-05-29T09:46:02.381Z,9.53
2019-05-29T09:51:20.596Z,4.33
2019-05-29T09:53:38.403Z,3.83
2019-05-29T09:56:07.601Z,4.83
2019-05-29T09:58:37.259Z,4.40
2019-05-29T10:01:22.264Z,4.10
2019-05-29T10:03:38.576Z,5.00
2019-05-29T10:06:09.492Z,5.17
2019-05-29T10:08:39.496Z,4.37
2019-05-29T10:11:10.832Z,3.97
2019-05-29T10:13:40.171Z,4.20
2019-05-29T10:16:09.401Z,4.57
2019-05-29T10:18:38.752Z,5.00
2019-05-29T10:21:08.234Z,4.63
2019-05-29T10:23:37.441Z,6.07
2019-05-29T10:26:06.708Z,5.57
2019-05-29T10:28:50.173Z,4.93
2019-05-29T10:31:06.963Z,5.57
2019-05-29T10:33:36.551Z,5.60
2019-05-29T10:36:05.840Z,5.07
2019-05-29T10:38:35.383Z,5.30
2019-05-29T10:41:07.154Z,5.20
2019-05-29T10:43:35.976Z,5.33
2019-05-29T10:46:05.311Z,5.60
2019-05-29T10:48:34.862Z,5.33
2019-05-29T10:51:04.119Z,5.60
2019-05-29T10:53:33.783Z,5.00
2019-05-29T10:56:03.858Z,4.67
2019-05-29T10:58:48.061Z,5.63
2019-05-29T11:01:04.076Z,5.60
2019-05-29T11:03:33.321Z,5.73
2019-05-29T11:06:02.530Z,6.07
2019-05-29T11:08:31.780Z,4.50
2019-05-29T11:11:20.099Z,4.80
2019-05-29T11:13:50.525Z,4.47
2019-05-29T11:16:40.099Z,5.00
2019-05-29T11:19:10.618Z,5.27
2019-05-29T11:21:39.861Z,4.60
2019-05-29T11:24:49.939Z,4.73
2019-05-29T11:27:19.403Z,4.50
2019-05-29T11:29:48.797Z,5.93
2019-05-29T11:32:19.586Z,4.77
2019-05-29T11:34:49.040Z,7.63
2019-05-29T11:37:18.217Z,3.93
2019-05-29T11:39:47.422Z,4.53
2019-05-29T11:42:26.999Z,4.00
2019-05-29T11:44:47.712Z,4.03
2019-05-29T11:47:17.007Z,3.30
2019-05-29T11:49:46.194Z,5.63
2019-05-29T11:52:24.477Z,3.53
2019-05-29T11:54:47.307Z,4.20
2019-05-29T11:57:16.924Z,4.97
2019-05-29T11:59:46.148Z,4.10
2019-05-29T12:02:15.343Z,5.73
2019-05-29T12:04:45.019Z,4.63
2019-05-29T12:07:14.248Z,4.60
2019-05-29T12:09:43.496Z,4.77
2019-05-29T12:12:12.699Z,4.40
2019-05-29T12:14:59.071Z,4.10
2019-05-29T12:17:12.973Z,3.57
2019-05-29T12:19:42.276Z,2.90
2019-05-29T12:22:11.756Z,3.50
2019-05-29T12:24:40.997Z,4.90
2019-05-29T12:27:10.590Z,4.07
2019-05-29T12:29:40.201Z,3.53
2019-05-29T12:32:11.649Z,4.77
2019-05-29T12:37:14.900Z,3.93
2019-05-29T12:39:44.175Z,3.53
2019-05-29T12:42:13.359Z,3.10
2019-05-29T12:44:42.935Z,3.93
2019-05-29T12:47:31.263Z,4.80
2019-05-29T12:50:00.978Z,3.30
2019-05-29T12:52:31.436Z,3.50
2019-05-29T12:55:00.641Z,4.47
2019-05-29T12:57:30.216Z,4.47
2019-05-29T13:00:00.307Z,4.10
2019-05-29T13:05:45.437Z,4.57
2019-05-29T13:08:14.692Z,4.30
2019-05-29T13:10:43.950Z,4.63
2019-05-29T13:13:13.433Z,4.90
2019-05-29T13:15:42.973Z,7.87
2019-05-29T13:18:31.153Z,5.93
2019-05-29T13:21:00.961Z,4.43
2019-05-29T13:23:44.310Z,5.00
2019-05-29T13:26:03.683Z,4.10
2019-05-29T13:28:34.107Z,4.23
2019-05-29T13:31:04.593Z,5.20
2019-05-29T13:33:34.967Z,4.60
2019-05-29T13:36:04.591Z,4.03
2019-05-29T13:38:36.207Z,4.27
2019-05-29T13:41:07.749Z,5.50
2019-05-29T13:43:38.451Z,3.50
2019-05-29T13:46:07.713Z,4.33
2019-05-29T13:48:37.362Z,4.57
2019-05-29T13:51:07.379Z,5.03
2019-05-29T13:56:11.835Z,4.67
2019-05-29T13:58:41.077Z,4.53
2019-05-29T14:01:10.323Z,4.97
2019-05-29T14:03:39.563Z,4.53
2019-05-29T14:06:09.547Z,4.93
2019-05-29T14:08:39.727Z,4.37
2019-05-29T14:11:09.137Z,4.53
2019-05-29T14:13:39.935Z,5.13
2019-05-29T14:16:09.287Z,5.13
2019-05-29T14:18:38.465Z,4.03
2019-05-29T14:21:09.256Z,7.23
2019-05-29T14:23:39.924Z,5.30
2019-05-29T14:26:10.082Z,4.40
2019-05-29T14:28:39.706Z,4.47
2019-05-29T14:31:10.036Z,4.70
2019-05-29T14:33:39.878Z,5.10
2019-05-29T14:36:09.516Z,5.37
2019-05-29T14:38:39.172Z,5.50
2019-05-29T14:41:09.821Z,4.33
2019-05-29T14:43:39.665Z,4.10
2019-05-29T14:46:10.178Z,4.73
2019-05-29T14:48:40.179Z,5.37
2019-05-29T14:51:10.602Z,3.80
2019-05-29T14:53:40.725Z,4.20
2019-05-29T14:56:10.638Z,3.33
2019-05-29T14:58:40.900Z,3.37
2019-05-29T15:01:11.275Z,4.63
2019-05-29T15:03:41.525Z,3.10
2019-05-29T15:06:11.726Z,2.87
2019-05-29T15:09:03.531Z,3.17
2019-05-29T15:11:32.803Z,3.50
2019-05-29T15:14:02.101Z,3.13
2019-05-29T15:16:50.399Z,3.23
2019-05-29T15:19:31.308Z,3.10
2019-05-29T15:22:00.611Z,3.13
2019-05-29T15:24:29.802Z,4.57
2019-05-29T15:26:59.411Z,2.90
2019-05-29T15:29:28.599Z,3.30
2019-05-29T15:32:10.346Z,3.73
2019-05-29T15:34:29.126Z,3.67
2019-05-29T15:36:58.742Z,3.73
2019-05-29T15:39:28.258Z,3.10
2019-05-29T15:41:57.488Z,3.37
2019-05-29T15:44:27.072Z,3.80
2019-05-29T15:46:56.350Z,4.17
2019-05-29T15:49:25.526Z,3.73
2019-05-29T15:51:54.772Z,2.90
2019-05-29T15:54:23.986Z,3.30
2019-05-29T15:56:53.228Z,3.30
2019-05-29T15:59:22.421Z,4.03
2019-05-29T16:01:51.679Z,3.17
2019-05-29T16:04:20.878Z,4.27
2019-05-29T16:06:50.136Z,4.47
2019-05-29T16:09:19.389Z,3.87
2019-05-29T16:11:48.592Z,4.13
2019-05-29T16:14:19.033Z,3.80
2019-05-29T16:16:48.781Z,3.27
2019-05-29T16:19:18.439Z,3.77
2019-05-29T16:21:47.687Z,3.90
2019-05-29T16:24:17.292Z,3.93
2019-05-29T16:26:46.483Z,3.97
2019-05-29T16:31:55.484Z,7.83
2019-05-29T16:34:24.732Z,3.53
2019-05-29T16:36:53.918Z,4.13
2019-05-29T16:39:42.246Z,3.87
2019-05-29T16:42:11.947Z,3.37
2019-05-29T16:44:42.715Z,4.77
2019-05-29T16:47:12.483Z,4.20
2019-05-29T16:49:43.249Z,4.17
2019-05-29T16:52:12.891Z,4.37
2019-05-29T16:54:43.632Z,4.40
2019-05-29T16:57:13.433Z,5.23
2019-05-29T16:59:42.638Z,5.33
2019-05-29T17:02:13.529Z,4.20
2019-05-29T17:04:42.824Z,5.20
2019-05-29T17:07:12.083Z,4.20
2019-05-29T17:09:41.293Z,3.37
2019-05-29T17:12:10.534Z,4.33
2019-05-29T17:14:39.738Z,3.23
2019-05-29T17:17:09.003Z,4.50
2019-05-29T17:20:18.718Z,7.20
2019-05-29T17:22:48.931Z,3.23
2019-05-29T17:25:18.925Z,3.60
2019-05-29T17:27:49.140Z,3.67
2019-05-29T17:31:01.787Z,4.23
2019-05-29T17:36:03.561Z,3.37
2019-05-29T17:38:33.152Z,2.97
2019-05-29T17:41:02.700Z,2.60
2019-05-29T17:43:32.557Z,4.00
2019-05-29T17:46:01.790Z,3.10
2019-05-29T17:48:31.161Z,3.23
2019-05-29T17:51:00.355Z,2.70
2019-05-29T17:53:30.109Z,3.00
2019-05-29T17:55:59.418Z,2.93
2019-05-29T17:58:28.664Z,4.57
2019-05-29T18:00:57.866Z,3.60
2019-05-29T18:03:27.103Z,3.23
2019-05-29T18:05:56.732Z,3.00
2019-05-29T18:08:26.948Z,4.23
2019-05-29T18:10:57.314Z,4.23
2019-05-29T18:13:27.443Z,4.50
2019-05-29T18:15:57.549Z,10.87
2019-05-29T18:18:27.839Z,10.53
2019-05-29T18:20:58.614Z,4.40
2019-05-29T18:23:28.222Z,16.17
2019-05-29T18:25:59.187Z,7.90
2019-05-29T18:28:28.402Z,9.83
2019-05-29T18:30:57.618Z,5.10
2019-05-29T18:33:26.862Z,5.33
2019-05-29T18:35:56.735Z,3.97
2019-05-29T18:38:26.468Z,4.50
2019-05-29T18:40:57.645Z,3.60
2019-05-29T18:43:27.058Z,3.70
2019-05-29T18:45:56.320Z,7.50
2019-05-29T18:48:25.515Z,4.63
2019-05-29T18:51:13.692Z,3.73
2019-05-29T18:53:42.886Z,5.03
2019-05-29T18:56:12.135Z,3.57
2019-05-29T18:58:41.595Z,5.33
2019-05-29T19:01:10.847Z,3.20
2019-05-29T19:03:40.633Z,8.37
2019-05-29T19:06:31.853Z,3.60
2019-05-29T19:09:01.765Z,3.47
2019-05-29T19:11:31.991Z,3.00
2019-05-29T19:14:03.163Z,3.27
2019-05-29T19:16:32.459Z,4.53
2019-05-29T19:19:01.665Z,3.10
2019-05-29T19:21:30.980Z,3.30
2019-05-29T19:24:00.586Z,3.23
2019-05-29T19:26:33.684Z,3.70
2019-05-29T19:29:00.798Z,4.03
2019-05-29T19:34:18.685Z,3.90
2019-05-29T19:36:47.887Z,3.10
2019-05-29T19:39:17.463Z,3.30
2019-05-29T19:41:46.677Z,3.63
2019-05-29T19:44:18.183Z,3.17
2019-05-29T19:46:53.804Z,2.90
2019-05-29T19:49:19.405Z,3.77
2019-05-29T19:51:48.608Z,3.90
2019-05-29T19:54:18.179Z,5.53
2019-05-29T19:56:47.687Z,4.33
2019-05-29T19:59:17.287Z,3.67
2019-05-29T20:01:46.494Z,4.57
2019-05-29T20:04:15.793Z,4.20
2019-05-29T20:06:44.989Z,4.10
2019-05-29T20:09:14.242Z,3.80
2019-05-29T20:11:43.445Z,3.80
2019-05-29T20:16:48.441Z,4.47
2019-05-29T20:19:17.688Z,4.60
2019-05-29T20:21:47.413Z,4.10
2019-05-29T20:24:16.681Z,4.50
2019-05-29T20:26:46.243Z,4.77
2019-05-29T20:29:15.461Z,5.33
2019-05-29T20:31:44.712Z,3.93
2019-05-29T20:34:13.912Z,4.20
2019-05-29T20:36:43.548Z,3.60
2019-05-29T20:39:12.765Z,4.40
2019-05-29T20:41:43.541Z,3.87
2019-05-29T20:44:12.974Z,4.37
2019-05-29T20:46:42.802Z,4.70
2019-05-29T20:49:13.188Z,3.90
2019-05-29T20:51:42.467Z,3.97
2019-05-29T20:59:58.741Z,4.33
2019-05-29T21:02:28.010Z,4.40
2019-05-29T21:04:57.609Z,5.47
2019-05-29T21:07:27.607Z,4.77
2019-05-29T21:09:56.811Z,5.60
2019-05-29T21:12:26.069Z,4.77
2019-05-29T21:14:55.645Z,4.90
2019-05-29T21:17:25.290Z,4.37
2019-05-29T21:19:54.978Z,5.17
2019-05-29T21:22:24.255Z,4.60
2019-05-29T21:25:01.873Z,5.20
2019-05-29T21:27:24.469Z,4.50
2019-05-29T21:29:54.142Z,5.30
2019-05-29T21:32:23.417Z,4.60
2019-05-29T21:34:52.750Z,4.07
2019-05-29T21:37:22.381Z,4.63
2019-05-29T21:39:51.597Z,4.17
2019-05-29T21:42:20.868Z,4.00
2019-05-29T21:44:50.093Z,3.90
2019-05-29T21:47:20.277Z,4.70
2019-05-29T21:49:50.190Z,3.70
2019-05-29T21:52:19.711Z,4.17
2019-05-29T21:54:48.981Z,4.10
2019-05-29T21:57:18.246Z,4.17
2019-05-29T22:00:07.962Z,4.00
2019-05-29T22:02:38.255Z,5.20
2019-05-29T22:05:48.770Z,4.30
2019-05-29T22:08:19.231Z,4.03
2019-05-29T22:10:48.500Z,4.30
2019-05-29T22:13:17.740Z,4.23
2019-05-29T22:15:47.046Z,4.20
2019-05-29T22:18:16.317Z,4.23
2019-05-29T22:20:45.564Z,4.03
2019-05-29T22:25:49.483Z,3.87
2019-05-29T22:28:18.827Z,5.03
2019-05-29T22:30:48.391Z,3.70
2019-05-29T22:33:17.666Z,4.07
2019-05-29T22:35:46.885Z,4.37
2019-05-29T22:38:16.438Z,4.00
2019-05-29T22:40:45.641Z,5.10
2019-05-29T22:43:14.887Z,4.77
2019-05-29T22:45:44.079Z,4.73
2019-05-29T22:48:13.320Z,4.70
2019-05-29T22:50:42.515Z,5.03
2019-05-29T22:53:12.521Z,5.00
2019-05-29T22:55:41.708Z,4.77
2019-05-29T22:58:11.220Z,4.80
2019-05-29T23:00:40.805Z,4.50
2019-05-29T23:03:10.361Z,6.13
2019-05-29T23:05:39.612Z,6.23
2019-05-29T23:08:08.810Z,6.13
2019-05-29T23:10:38.062Z,6.07
2019-05-29T23:13:07.535Z,5.23
2019-05-29T23:15:37.442Z,6.13
2019-05-29T23:18:06.631Z,6.20
2019-05-29T23:20:35.910Z,6.87
2019-05-29T23:23:05.087Z,7.17
2019-05-29T23:25:34.324Z,7.87
2019-05-29T23:28:03.540Z,8.90
2019-05-29T23:30:33.184Z,8.57
2019-05-29T23:33:03.396Z,8.43
2019-05-29T23:35:33.326Z,9.33
2019-05-29T23:38:03.477Z,9.10
2019-05-29T23:40:33.767Z,8.67
2019-05-29T23:45:38.091Z,9.20
2019-05-29T23:48:07.274Z,9.17
2019-05-29T23:50:36.444Z,9.20
2019-05-29T23:53:05.960Z,8.27
2019-05-29T23:55:35.150Z,9.33
2019-05-29T23:58:08.197Z,9.57
